sensor_id;sensor_type;location;lat;lon;timestamp;pressure;altitude;pressure_sealevel;temperature;humidity
20942;BME280;10630;53.734;10.282;2023-04-08T00:01:50;102007.63;;;9.31;98.17
20942;BME280;10630;53.734;10.282;2023-04-08T00:04:26;102013.22;;;9.49;96.85
20942;BME280;10630;53.734;10.282;2023-04-08T00:06:55;102011.78;;;9.01;98.51
20942;BME280;10630;53.734;10.282;2023-04-08T00:09:22;102013.50;;;9.02;97.77
20942;BME280;10630;53.734;10.282;2023-04-08T00:11:54;102019.59;;;9.25;98.79
20942;BME280;10630;53.734;10.282;2023-04-08T00:14:26;102023.72;;;9.72;94.01
20942;BME280;10630;53.734;10.282;2023-04-08T00:17:06;102022.63;;;10.48;88.78
20942;BME280;10630;53.734;10.282;2023-04-08T00:19:38;102023.56;;;9.85;89.82
20942;BME280;10630;53.734;10.282;2023-04-08T00:22:05;102019.53;;;10.42;91.62
20942;BME280;10630;53.734;10.282;2023-04-08T00:24:36;102017.94;;;9.66;91.63
20942;BME280;10630;53.734;10.282;2023-04-08T00:27:09;102020.28;;;10.02;92.98
20942;BME280;10630;53.734;10.282;2023-04-08T00:29:39;102021.28;;;9.26;95.43
20942;BME280;10630;53.734;10.282;2023-04-08T00:32:09;102016.34;;;9.75;94.01
20942;BME280;10630;53.734;10.282;2023-04-08T00:34:40;102014.69;;;9.42;98.77
20942;BME280;10630;53.734;10.282;2023-04-08T00:37:09;102014.50;;;9.97;96.86
20942;BME280;10630;53.734;10.282;2023-04-08T00:39:39;102020.03;;;10.05;93.29
20942;BME280;10630;53.734;10.282;2023-04-08T00:42:09;102021.97;;;9.61;92.79
20942;BME280;10630;53.734;10.282;2023-04-08T00:44:37;102017.06;;;10.60;91.50
20942;BME280;10630;53.734;10.282;2023-04-08T00:47:05;102020.84;;;9.42;93.78
20942;BME280;10630;53.734;10.282;2023-04-08T00:49:35;102020.47;;;9.47;94.32
20942;BME280;10630;53.734;10.282;2023-04-08T00:52:05;102018.88;;;10.29;91.67
20942;BME280;10630;53.734;10.282;2023-04-08T00:54:36;102024.91;;;9.79;90.59
20942;BME280;10630;53.734;10.282;2023-04-08T00:57:07;102029.78;;;9.41;92.86
20942;BME280;10630;53.734;10.282;2023-04-08T00:59:38;102026.06;;;9.86;94.41
20942;BME280;10630;53.734;10.282;2023-04-08T01:07:31;102023.72;;;9.18;98.25
20942;BME280;10630;53.734;10.282;2023-04-08T01:10:11;102022.19;;;9.04;100.00
20942;BME280;10630;53.734;10.282;2023-04-08T01:12:53;102024.38;;;9.64;98.37
20942;BME280;10630;53.734;10.282;2023-04-08T01:15:21;102021.97;;;9.61;92.57
20942;BME280;10630;53.734;10.282;2023-04-08T01:17:53;102020.31;;;9.48;99.24
20942;BME280;10630;53.734;10.282;2023-04-08T01:20:26;102021.31;;;9.69;96.94
20942;BME280;10630;53.734;10.282;2023-04-08T01:25:35;102026.34;;;10.14;96.12
20942;BME280;10630;53.734;10.282;2023-04-08T01:28:06;102022.50;;;9.76;92.42
20942;BME280;10630;53.734;10.282;2023-04-08T01:30:37;102023.91;;;10.01;95.54
20942;BME280;10630;53.734;10.282;2023-04-08T01:33:06;102015.47;;;9.32;94.69
20942;BME280;10630;53.734;10.282;2023-04-08T01:35:40;102011.91;;;9.86;95.68
20942;BME280;10630;53.734;10.282;2023-04-08T01:40:48;102017.69;;;9.91;88.96
20942;BME280;10630;53.734;10.282;2023-04-08T01:43:20;102019.06;;;8.99;96.59
20942;BME280;10630;53.734;10.282;2023-04-08T01:45:50;102021.59;;;9.33;98.12
20942;BME280;10630;53.734;10.282;2023-04-08T01:48:25;102019.06;;;9.31;97.64
20942;BME280;10630;53.734;10.282;2023-04-08T01:50:56;102020.59;;;9.88;94.40
20942;BME280;10630;53.734;10.282;2023-04-08T01:53:26;102022.88;;;9.71;95.22
20942;BME280;10630;53.734;10.282;2023-04-08T01:55:56;102017.03;;;9.24;97.39
20942;BME280;10630;53.734;10.282;2023-04-08T01:58:25;102015.19;;;9.68;95.75
20942;BME280;10630;53.734;10.282;2023-04-08T02:00:59;102012.75;;;9.44;96.08
20942;BME280;10630;53.734;10.282;2023-04-08T02:03:28;102010.84;;;9.02;100.00
20942;BME280;10630;53.734;10.282;2023-04-08T02:05:56;102005.03;;;9.62;100.00
20942;BME280;10630;53.734;10.282;2023-04-08T02:08:27;102004.06;;;9.09;100.00
20942;BME280;10630;53.734;10.282;2023-04-08T02:10:57;102013.72;;;9.64;98.90
20942;BME280;10630;53.734;10.282;2023-04-08T02:13:27;102009.78;;;9.26;98.03
20942;BME280;10630;53.734;10.282;2023-04-08T02:16:09;102010.91;;;8.68;100.00
20942;BME280;10630;53.734;10.282;2023-04-08T02:18:44;102007.31;;;8.58;100.00
20942;BME280;10630;53.734;10.282;2023-04-08T02:21:18;102009.38;;;9.09;100.00
20942;BME280;10630;53.734;10.282;2023-04-08T02:23:49;102003.13;;;8.99;99.46
20942;BME280;10630;53.734;10.282;2023-04-08T02:26:17;101991.25;;;9.14;99.39
20942;BME280;10630;53.734;10.282;2023-04-08T02:28:48;102008.03;;;8.60;100.00
20942;BME280;10630;53.734;10.282;2023-04-08T02:31:17;101999.22;;;8.70;100.00
20942;BME280;10630;53.734;10.282;2023-04-08T02:33:47;101999.56;;;8.54;100.00
20942;BME280;10630;53.734;10.282;2023-04-08T02:36:15;102007.75;;;8.40;100.00
20942;BME280;10630;53.734;10.282;2023-04-08T02:38:48;102013.19;;;9.28;100.00
20942;BME280;10630;53.734;10.282;2023-04-08T02:41:19;102010.91;;;8.68;100.00
20942;BME280;10630;53.734;10.282;2023-04-08T02:43:49;102008.97;;;9.25;100.00
20942;BME280;10630;53.734;10.282;2023-04-08T02:46:25;102015.22;;;8.80;100.00
20942;BME280;10630;53.734;10.282;2023-04-08T02:48:59;102013.88;;;8.06;100.00
20942;BME280;10630;53.734;10.282;2023-04-08T02:51:32;102008.63;;;8.52;100.00
20942;BME280;10630;53.734;10.282;2023-04-08T02:54:03;102013.53;;;8.91;100.00
20942;BME280;10630;53.734;10.282;2023-04-08T02:56:31;102013.78;;;10.16;98.00
20942;BME280;10630;53.734;10.282;2023-04-08T02:58:58;102019.81;;;9.55;98.81
20942;BME280;10630;53.734;10.282;2023-04-08T03:01:29;102023.47;;;9.54;99.62
20942;BME280;10630;53.734;10.282;2023-04-08T03:04:01;102016.13;;;9.46;96.41
20942;BME280;10630;53.734;10.282;2023-04-08T03:06:30;102016.69;;;8.28;100.00
20942;BME280;10630;53.734;10.282;2023-04-08T03:09:00;102024.16;;;8.34;100.00
20942;BME280;10630;53.734;10.282;2023-04-08T03:11:32;102017.66;;;8.72;100.00
20942;BME280;10630;53.734;10.282;2023-04-08T03:14:02;102027.50;;;9.04;100.00
20942;BME280;10630;53.734;10.282;2023-04-08T03:16:31;102023.38;;;9.44;100.00
20942;BME280;10630;53.734;10.282;2023-04-08T03:19:01;102034.00;;;9.11;100.00
20942;BME280;10630;53.734;10.282;2023-04-08T03:21:29;102032.13;;;8.79;100.00
20942;BME280;10630;53.734;10.282;2023-04-08T03:24:03;102040.84;;;8.59;100.00
20942;BME280;10630;53.734;10.282;2023-04-08T03:26:33;102037.13;;;9.16;100.00
20942;BME280;10630;53.734;10.282;2023-04-08T03:29:03;102038.06;;;8.71;100.00
20942;BME280;10630;53.734;10.282;2023-04-08T03:31:35;102039.91;;;9.47;100.00
20942;BME280;10630;53.734;10.282;2023-04-08T03:34:03;102042.84;;;9.33;100.00
20942;BME280;10630;53.734;10.282;2023-04-08T03:36:33;102050.91;;;9.75;95.50
20942;BME280;10630;53.734;10.282;2023-04-08T03:39:08;102045.56;;;9.22;100.00
20942;BME280;10630;53.734;10.282;2023-04-08T03:41:37;102047.47;;;8.64;100.00
20942;BME280;10630;53.734;10.282;2023-04-08T03:44:08;102052.97;;;9.07;100.00
20942;BME280;10630;53.734;10.282;2023-04-08T03:46:43;102052.88;;;9.62;100.00
20942;BME280;10630;53.734;10.282;2023-04-08T03:49:12;102051.66;;;10.29;96.25
20942;BME280;10630;53.734;10.282;2023-04-08T03:51:44;102047.78;;;9.05;100.00
20942;BME280;10630;53.734;10.282;2023-04-08T03:54:23;102049.72;;;9.89;100.00
20942;BME280;10630;53.734;10.282;2023-04-08T03:56:55;102054.91;;;8.93;100.00
20942;BME280;10630;53.734;10.282;2023-04-08T03:59:25;102053.78;;;9.18;100.00
20942;BME280;10630;53.734;10.282;2023-04-08T04:01:59;102059.00;;;9.95;98.20
20942;BME280;10630;53.734;10.282;2023-04-08T04:04:35;102053.03;;;8.61;100.00
20942;BME280;10630;53.734;10.282;2023-04-08T04:07:03;102049.50;;;9.39;100.00
20942;BME280;10630;53.734;10.282;2023-04-08T04:09:34;102056.72;;;8.93;99.35
20942;BME280;10630;53.734;10.282;2023-04-08T04:12:11;102064.53;;;9.06;100.00
20942;BME280;10630;53.734;10.282;2023-04-08T04:14:42;102061.50;;;9.54;100.00
20942;BME280;10630;53.734;10.282;2023-04-08T04:17:16;102068.88;;;9.83;98.79
20942;BME280;10630;53.734;10.282;2023-04-08T04:19:45;102055.81;;;8.60;100.00
20942;BME280;10630;53.734;10.282;2023-04-08T04:25:12;102062.78;;;8.49;100.00
20942;BME280;10630;53.734;10.282;2023-04-08T04:27:41;102077.94;;;9.15;100.00
20942;BME280;10630;53.734;10.282;2023-04-08T04:30:15;102075.72;;;9.86;100.00
20942;BME280;10630;53.734;10.282;2023-04-08T04:32:42;102077.19;;;9.25;100.00
20942;BME280;10630;53.734;10.282;2023-04-08T04:35:13;102073.88;;;9.76;100.00
20942;BME280;10630;53.734;10.282;2023-04-08T04:37:47;102077.91;;;9.92;93.55
20942;BME280;10630;53.734;10.282;2023-04-08T04:40:18;102075.88;;;9.84;98.34
20942;BME280;10630;53.734;10.282;2023-04-08T04:42:50;102089.66;;;9.13;100.00
20942;BME280;10630;53.734;10.282;2023-04-08T04:45:19;102092.69;;;8.85;100.00
20942;BME280;10630;53.734;10.282;2023-04-08T04:47:54;102083.94;;;9.29;100.00
20942;BME280;10630;53.734;10.282;2023-04-08T04:50:24;102092.88;;;9.28;100.00
20942;BME280;10630;53.734;10.282;2023-04-08T04:53:01;102091.47;;;9.56;99.75
20942;BME280;10630;53.734;10.282;2023-04-08T04:55:51;102095.03;;;9.45;100.00
20942;BME280;10630;53.734;10.282;2023-04-08T04:58:20;102097.38;;;9.60;95.41
20942;BME280;10630;53.734;10.282;2023-04-08T05:01:06;102089.50;;;9.26;100.00
20942;BME280;10630;53.734;10.282;2023-04-08T05:03:38;102093.56;;;8.86;100.00
20942;BME280;10630;53.734;10.282;2023-04-08T05:06:09;102100.63;;;9.08;100.00
20942;BME280;10630;53.734;10.282;2023-04-08T05:08:41;102107.88;;;9.17;100.00
20942;BME280;10630;53.734;10.282;2023-04-08T05:11:18;102111.50;;;9.16;100.00
20942;BME280;10630;53.734;10.282;2023-04-08T05:13:50;102111.19;;;9.75;99.97
20942;BME280;10630;53.734;10.282;2023-04-08T05:16:18;102114.34;;;9.80;96.26
20942;BME280;10630;53.734;10.282;2023-04-08T05:18:50;102114.19;;;9.05;98.51
20942;BME280;10630;53.734;10.282;2023-04-08T05:21:19;102120.28;;;9.28;100.00
20942;BME280;10630;53.734;10.282;2023-04-08T05:23:52;102124.28;;;9.99;99.87
20942;BME280;10630;53.734;10.282;2023-04-08T05:26:21;102118.94;;;9.45;98.76
20942;BME280;10630;53.734;10.282;2023-04-08T05:28:52;102121.16;;;9.17;100.00
20942;BME280;10630;53.734;10.282;2023-04-08T05:31:22;102120.44;;;8.47;100.00
20942;BME280;10630;53.734;10.282;2023-04-08T05:33:52;102126.91;;;9.45;100.00
20942;BME280;10630;53.734;10.282;2023-04-08T05:36:23;102128.06;;;8.75;100.00
20942;BME280;10630;53.734;10.282;2023-04-08T05:38:54;102130.75;;;8.28;100.00
20942;BME280;10630;53.734;10.282;2023-04-08T05:41:21;102132.41;;;8.64;100.00
20942;BME280;10630;53.734;10.282;2023-04-08T05:43:49;102132.91;;;7.87;100.00
20942;BME280;10630;53.734;10.282;2023-04-08T05:46:20;102136.44;;;8.34;100.00
20942;BME280;10630;53.734;10.282;2023-04-08T05:48:54;102135.19;;;8.74;100.00
20942;BME280;10630;53.734;10.282;2023-04-08T05:51:25;102129.13;;;9.29;100.00
20942;BME280;10630;53.734;10.282;2023-04-08T05:53:53;102139.44;;;8.88;100.00
20942;BME280;10630;53.734;10.282;2023-04-08T05:56:22;102141.09;;;8.55;100.00
20942;BME280;10630;53.734;10.282;2023-04-08T05:58:53;102144.59;;;8.78;100.00
20942;BME280;10630;53.734;10.282;2023-04-08T06:01:24;102148.50;;;8.27;100.00
20942;BME280;10630;53.734;10.282;2023-04-08T06:03:56;102149.13;;;8.42;100.00
20942;BME280;10630;53.734;10.282;2023-04-08T06:06:24;102144.78;;;9.43;100.00
20942;BME280;10630;53.734;10.282;2023-04-08T06:08:52;102151.78;;;9.44;100.00
20942;BME280;10630;53.734;10.282;2023-04-08T06:11:24;102149.41;;;9.18;100.00
20942;BME280;10630;53.734;10.282;2023-04-08T06:14:01;102155.69;;;8.61;100.00
20942;BME280;10630;53.734;10.282;2023-04-08T06:16:32;102161.13;;;8.82;100.00
20942;BME280;10630;53.734;10.282;2023-04-08T06:19:02;102170.00;;;8.11;100.00
20942;BME280;10630;53.734;10.282;2023-04-08T06:21:33;102163.66;;;8.61;100.00
20942;BME280;10630;53.734;10.282;2023-04-08T06:24:02;102171.09;;;8.55;100.00
20942;BME280;10630;53.734;10.282;2023-04-08T06:26:30;102169.06;;;8.59;100.00
20942;BME280;10630;53.734;10.282;2023-04-08T06:28:59;102165.47;;;9.17;100.00
20942;BME280;10630;53.734;10.282;2023-04-08T06:31:33;102172.84;;;8.79;100.00
20942;BME280;10630;53.734;10.282;2023-04-08T06:34:09;102169.66;;;8.51;100.00
20942;BME280;10630;53.734;10.282;2023-04-08T06:36:39;102174.41;;;8.93;100.00
20942;BME280;10630;53.734;10.282;2023-04-08T06:39:19;102170.88;;;8.70;100.00
20942;BME280;10630;53.734;10.282;2023-04-08T06:41:52;102170.69;;;8.84;100.00
20942;BME280;10630;53.734;10.282;2023-04-08T06:47:31;102178.25;;;8.66;100.00
20942;BME280;10630;53.734;10.282;2023-04-08T06:52:35;102187.41;;;8.62;100.00
20942;BME280;10630;53.734;10.282;2023-04-08T06:55:06;102185.16;;;8.80;100.00
20942;BME280;10630;53.734;10.282;2023-04-08T06:57:35;102184.25;;;9.59;98.90
20942;BME280;10630;53.734;10.282;2023-04-08T07:00:06;102186.78;;;10.26;95.59
20942;BME280;10630;53.734;10.282;2023-04-08T07:02:40;102183.50;;;10.34;94.47
20942;BME280;10630;53.734;10.282;2023-04-08T07:05:12;102189.28;;;9.30;96.81
20942;BME280;10630;53.734;10.282;2023-04-08T07:07:41;102195.69;;;9.71;95.98
20942;BME280;10630;53.734;10.282;2023-04-08T07:10:11;102201.31;;;9.45;98.62
20942;BME280;10630;53.734;10.282;2023-04-08T07:12:41;102208.81;;;8.95;100.00
20942;BME280;10630;53.734;10.282;2023-04-08T07:15:17;102200.22;;;9.37;100.00
20942;BME280;10630;53.734;10.282;2023-04-08T07:17:45;102202.34;;;9.65;100.00
20942;BME280;10630;53.734;10.282;2023-04-08T07:20:16;102204.69;;;9.47;100.00
20942;BME280;10630;53.734;10.282;2023-04-08T07:22:49;102205.88;;;9.55;100.00
20942;BME280;10630;53.734;10.282;2023-04-08T07:25:20;102208.69;;;9.86;96.77
20942;BME280;10630;53.734;10.282;2023-04-08T07:27:53;102207.63;;;9.22;99.15
20942;BME280;10630;53.734;10.282;2023-04-08T07:30:26;102212.00;;;9.78;99.13
20942;BME280;10630;53.734;10.282;2023-04-08T07:32:54;102216.44;;;9.11;100.00
20942;BME280;10630;53.734;10.282;2023-04-08T07:35:26;102210.31;;;10.09;100.00
20942;BME280;10630;53.734;10.282;2023-04-08T07:37:56;102213.97;;;9.53;100.00
20942;BME280;10630;53.734;10.282;2023-04-08T07:40:25;102212.88;;;9.56;100.00
20942;BME280;10630;53.734;10.282;2023-04-08T07:43:05;102218.22;;;9.33;100.00
20942;BME280;10630;53.734;10.282;2023-04-08T07:45:36;102220.03;;;9.99;99.23
20942;BME280;10630;53.734;10.282;2023-04-08T07:48:09;102222.59;;;9.45;97.87
20942;BME280;10630;53.734;10.282;2023-04-08T07:50:38;102226.91;;;9.01;100.00
20942;BME280;10630;53.734;10.282;2023-04-08T07:53:32;102228.03;;;9.32;100.00
20942;BME280;10630;53.734;10.282;2023-04-08T07:56:01;102238.38;;;10.13;98.80
20942;BME280;10630;53.734;10.282;2023-04-08T07:58:38;102228.06;;;10.53;90.85
20942;BME280;10630;53.734;10.282;2023-04-08T08:01:20;102237.66;;;10.00;95.19
20942;BME280;10630;53.734;10.282;2023-04-08T08:03:51;102242.16;;;9.44;100.00
20942;BME280;10630;53.734;10.282;2023-04-08T08:06:24;102249.31;;;9.99;100.00
20942;BME280;10630;53.734;10.282;2023-04-08T08:11:39;102245.19;;;10.39;92.57
20942;BME280;10630;53.734;10.282;2023-04-08T08:17:04;102250.34;;;8.84;99.75
20942;BME280;10630;53.734;10.282;2023-04-08T08:19:36;102255.44;;;9.33;100.00
20942;BME280;10630;53.734;10.282;2023-04-08T08:22:10;102254.78;;;9.75;100.00
20942;BME280;10630;53.734;10.282;2023-04-08T08:27:16;102264.34;;;8.98;100.00
20942;BME280;10630;53.734;10.282;2023-04-08T08:29:46;102260.41;;;10.04;100.00
20942;BME280;10630;53.734;10.282;2023-04-08T08:32:17;102261.88;;;9.97;95.51
20942;BME280;10630;53.734;10.282;2023-04-08T08:34:45;102265.94;;;9.23;99.63
20942;BME280;10630;53.734;10.282;2023-04-08T08:37:15;102265.50;;;9.96;100.00
20942;BME280;10630;53.734;10.282;2023-04-08T08:39:45;102274.28;;;9.41;100.00
20942;BME280;10630;53.734;10.282;2023-04-08T08:42:20;102263.59;;;9.87;100.00
20942;BME280;10630;53.734;10.282;2023-04-08T08:44:52;102270.66;;;9.19;100.00
20942;BME280;10630;53.734;10.282;2023-04-08T08:47:29;102272.84;;;9.37;100.00
20942;BME280;10630;53.734;10.282;2023-04-08T08:49:58;102275.47;;;9.71;100.00
20942;BME280;10630;53.734;10.282;2023-04-08T08:52:34;102276.44;;;9.47;100.00
20942;BME280;10630;53.734;10.282;2023-04-08T08:55:14;102279.50;;;10.09;100.00
20942;BME280;10630;53.734;10.282;2023-04-08T08:57:50;102282.38;;;9.17;100.00
20942;BME280;10630;53.734;10.282;2023-04-08T09:00:29;102282.31;;;8.83;100.00
20942;BME280;10630;53.734;10.282;2023-04-08T09:03:19;102279.84;;;9.61;100.00
20942;BME280;10630;53.734;10.282;2023-04-08T09:05:57;102280.16;;;8.99;100.00
20942;BME280;10630;53.734;10.282;2023-04-08T09:08:34;102282.19;;;9.87;100.00
20942;BME280;10630;53.734;10.282;2023-04-08T09:11:20;102283.66;;;9.79;100.00
20942;BME280;10630;53.734;10.282;2023-04-08T09:13:50;102291.78;;;9.21;100.00
20942;BME280;10630;53.734;10.282;2023-04-08T09:16:20;102293.25;;;9.59;100.00
20942;BME280;10630;53.734;10.282;2023-04-08T09:18:48;102289.19;;;10.43;94.71
20942;BME280;10630;53.734;10.282;2023-04-08T09:21:22;102299.03;;;9.76;100.00
20942;BME280;10630;53.734;10.282;2023-04-08T09:23:55;102290.03;;;10.00;97.81
20942;BME280;10630;53.734;10.282;2023-04-08T09:26:26;102296.31;;;10.10;98.77
20942;BME280;10630;53.734;10.282;2023-04-08T09:29:05;102306.09;;;11.17;92.50
20942;BME280;10630;53.734;10.282;2023-04-08T09:31:58;102313.25;;;10.53;91.49
20942;BME280;10630;53.734;10.282;2023-04-08T09:34:27;102305.78;;;10.68;90.14
20942;BME280;10630;53.734;10.282;2023-04-08T09:37:05;102309.91;;;10.39;90.67
20942;BME280;10630;53.734;10.282;2023-04-08T09:39:34;102313.03;;;10.98;90.00
20942;BME280;10630;53.734;10.282;2023-04-08T09:42:03;102306.38;;;11.14;86.51
20942;BME280;10630;53.734;10.282;2023-04-08T09:44:40;102307.25;;;11.24;84.97
20942;BME280;10630;53.734;10.282;2023-04-08T09:47:17;102306.00;;;11.49;89.59
20942;BME280;10630;53.734;10.282;2023-04-08T09:49:54;102307.72;;;11.60;82.38
20942;BME280;10630;53.734;10.282;2023-04-08T09:52:38;102298.38;;;9.95;87.39
20942;BME280;10630;53.734;10.282;2023-04-08T09:55:11;102318.38;;;9.32;98.32
20942;BME280;10630;53.734;10.282;2023-04-08T10:00:11;102315.56;;;10.35;98.01
20942;BME280;10630;53.734;10.282;2023-04-08T10:05:24;102310.28;;;10.23;97.99
20942;BME280;10630;53.734;10.282;2023-04-08T10:07:51;102308.97;;;10.18;96.73
20942;BME280;10630;53.734;10.282;2023-04-08T10:10:37;102311.91;;;10.03;99.78
20942;BME280;10630;53.734;10.282;2023-04-08T10:13:06;102322.88;;;10.65;91.50
20942;BME280;10630;53.734;10.282;2023-04-08T10:15:35;102309.25;;;10.80;90.84
20942;BME280;10630;53.734;10.282;2023-04-08T10:23:15;102310.66;;;10.19;97.16
20942;BME280;10630;53.734;10.282;2023-04-08T10:25:46;102325.00;;;9.27;100.00
20942;BME280;10630;53.734;10.282;2023-04-08T10:28:23;102317.41;;;10.45;97.52
20942;BME280;10630;53.734;10.282;2023-04-08T10:30:53;102319.44;;;11.17;90.65
20942;BME280;10630;53.734;10.282;2023-04-08T10:33:34;102320.44;;;10.29;95.71
20942;BME280;10630;53.734;10.282;2023-04-08T10:36:09;102317.75;;;10.73;91.23
20942;BME280;10630;53.734;10.282;2023-04-08T10:38:39;102310.91;;;10.16;90.86
20942;BME280;10630;53.734;10.282;2023-04-08T10:41:10;102319.59;;;8.81;100.00
20942;BME280;10630;53.734;10.282;2023-04-08T10:43:47;102319.41;;;10.09;100.00
20942;BME280;10630;53.734;10.282;2023-04-08T10:46:20;102306.72;;;10.02;100.00
20942;BME280;10630;53.734;10.282;2023-04-08T10:48:59;102315.00;;;9.42;100.00
20942;BME280;10630;53.734;10.282;2023-04-08T10:51:39;102309.09;;;11.02;94.97
20942;BME280;10630;53.734;10.282;2023-04-08T10:54:08;102315.03;;;10.08;97.39
20942;BME280;10630;53.734;10.282;2023-04-08T10:56:57;102311.31;;;10.11;96.15
20942;BME280;10630;53.734;10.282;2023-04-08T10:59:35;102312.47;;;11.56;93.83
20942;BME280;10630;53.734;10.282;2023-04-08T11:02:05;102313.28;;;10.95;89.90
20942;BME280;10630;53.734;10.282;2023-04-08T11:04:40;102321.50;;;10.38;91.25
20942;BME280;10630;53.734;10.282;2023-04-08T11:07:19;102318.09;;;10.80;91.71
20942;BME280;10630;53.734;10.282;2023-04-08T11:09:50;102313.59;;;11.02;89.07
20942;BME280;10630;53.734;10.282;2023-04-08T11:12:18;102314.03;;;11.07;86.74
20942;BME280;10630;53.734;10.282;2023-04-08T11:15:05;102315.81;;;10.75;92.01
20942;BME280;10630;53.734;10.282;2023-04-08T11:17:36;102321.16;;;11.28;87.33
20942;BME280;10630;53.734;10.282;2023-04-08T11:20:04;102319.81;;;11.12;86.42
20942;BME280;10630;53.734;10.282;2023-04-08T11:22:32;102324.31;;;9.59;94.83
20942;BME280;10630;53.734;10.282;2023-04-08T11:25:12;102322.22;;;9.17;100.00
20942;BME280;10630;53.734;10.282;2023-04-08T11:27:50;102325.28;;;9.69;100.00
20942;BME280;10630;53.734;10.282;2023-04-08T11:30:18;102323.78;;;10.43;92.57
20942;BME280;10630;53.734;10.282;2023-04-08T11:32:46;102322.00;;;10.97;92.01
20942;BME280;10630;53.734;10.282;2023-04-08T11:35:31;102315.91;;;11.78;86.45
20942;BME280;10630;53.734;10.282;2023-04-08T11:38:03;102314.78;;;11.71;83.63
20942;BME280;10630;53.734;10.282;2023-04-08T11:40:32;102317.84;;;11.66;79.85
20942;BME280;10630;53.734;10.282;2023-04-08T11:43:10;102309.84;;;11.66;82.50
20942;BME280;10630;53.734;10.282;2023-04-08T11:45:44;102320.56;;;11.45;82.50
20942;BME280;10630;53.734;10.282;2023-04-08T11:48:14;102324.84;;;9.96;93.06
20942;BME280;10630;53.734;10.282;2023-04-08T11:50:43;102320.84;;;10.13;94.05
20942;BME280;10630;53.734;10.282;2023-04-08T11:53:25;102327.56;;;9.40;100.00
20942;BME280;10630;53.734;10.282;2023-04-08T11:56:14;102318.00;;;9.82;99.70
20942;BME280;10630;53.734;10.282;2023-04-08T11:58:42;102324.91;;;10.29;100.00
20942;BME280;10630;53.734;10.282;2023-04-08T12:01:12;102325.94;;;10.82;94.59
20942;BME280;10630;53.734;10.282;2023-04-08T12:03:57;102323.66;;;10.77;92.12
20942;BME280;10630;53.734;10.282;2023-04-08T12:06:37;102327.38;;;11.59;88.17
20942;BME280;10630;53.734;10.282;2023-04-08T12:09:06;102327.47;;;11.57;85.03
20942;BME280;10630;53.734;10.282;2023-04-08T12:11:43;102334.34;;;11.91;80.34
20942;BME280;10630;53.734;10.282;2023-04-08T12:14:13;102333.84;;;11.97;83.84
20942;BME280;10630;53.734;10.282;2023-04-08T12:16:41;102328.25;;;12.79;75.38
20942;BME280;10630;53.734;10.282;2023-04-08T12:19:11;102338.44;;;11.95;77.22
20942;BME280;10630;53.734;10.282;2023-04-08T12:21:40;102346.38;;;11.45;79.65
20942;BME280;10630;53.734;10.282;2023-04-08T12:24:08;102334.00;;;13.04;75.29
20942;BME280;10630;53.734;10.282;2023-04-08T12:26:36;102333.38;;;11.61;77.55
20942;BME280;10630;53.734;10.282;2023-04-08T12:29:10;102348.59;;;10.76;85.34
20942;BME280;10630;53.734;10.282;2023-04-08T12:31:41;102334.16;;;11.42;84.81
20942;BME280;10630;53.734;10.282;2023-04-08T12:37:14;102345.00;;;10.98;86.62
20942;BME280;10630;53.734;10.282;2023-04-08T12:39:43;102342.66;;;10.51;87.09
20942;BME280;10630;53.734;10.282;2023-04-08T12:42:12;102345.00;;;10.98;88.98
20942;BME280;10630;53.734;10.282;2023-04-08T12:44:44;102342.22;;;11.52;87.65
20942;BME280;10630;53.734;10.282;2023-04-08T12:47:16;102349.25;;;11.53;86.27
20942;BME280;10630;53.734;10.282;2023-04-08T12:49:52;102348.44;;;12.03;82.18
20942;BME280;10630;53.734;10.282;2023-04-08T12:52:21;102349.38;;;11.30;83.61
20942;BME280;10630;53.734;10.282;2023-04-08T12:57:24;102354.25;;;11.04;84.89
20942;BME280;10630;53.734;10.282;2023-04-08T13:00:05;102350.31;;;12.22;80.81
20942;BME280;10630;53.734;10.282;2023-04-08T13:02:35;102344.69;;;11.75;80.03
20942;BME280;10630;53.734;10.282;2023-04-08T13:05:05;102353.34;;;12.08;76.97
20942;BME280;10630;53.734;10.282;2023-04-08T13:07:33;102353.69;;;12.34;75.21
20942;BME280;10630;53.734;10.282;2023-04-08T13:10:02;102354.22;;;12.08;78.17
20942;BME280;10630;53.734;10.282;2023-04-08T13:12:30;102355.03;;;11.16;80.64
20942;BME280;10630;53.734;10.282;2023-04-08T13:15:06;102352.84;;;12.53;79.07
20942;BME280;10630;53.734;10.282;2023-04-08T13:17:37;102344.84;;;11.21;84.78
20942;BME280;10630;53.734;10.282;2023-04-08T13:20:22;102348.63;;;12.21;81.55
20942;BME280;10630;53.734;10.282;2023-04-08T13:22:51;102346.66;;;12.23;77.48
20942;BME280;10630;53.734;10.282;2023-04-08T13:25:20;102351.44;;;11.48;78.85
20942;BME280;10630;53.734;10.282;2023-04-08T13:27:50;102356.88;;;11.15;83.09
20942;BME280;10630;53.734;10.282;2023-04-08T13:30:19;102361.91;;;11.70;82.57
20942;BME280;10630;53.734;10.282;2023-04-08T13:32:48;102351.19;;;11.51;82.07
20942;BME280;10630;53.734;10.282;2023-04-08T13:35:32;102363.72;;;10.54;86.74
20942;BME280;10630;53.734;10.282;2023-04-08T13:38:02;102359.00;;;10.47;89.91
20942;BME280;10630;53.734;10.282;2023-04-08T13:40:38;102357.81;;;10.39;89.42
20942;BME280;10630;53.734;10.282;2023-04-08T13:43:07;102358.50;;;9.63;95.26
20942;BME280;10630;53.734;10.282;2023-04-08T13:45:36;102363.03;;;11.16;95.16
20942;BME280;10630;53.734;10.282;2023-04-08T13:48:11;102353.09;;;12.11;83.57
20942;BME280;10630;53.734;10.282;2023-04-08T13:50:42;102351.16;;;11.20;80.63
20942;BME280;10630;53.734;10.282;2023-04-08T13:53:12;102353.16;;;11.59;84.66